Last 7 Days

Abernathy 1

Hourly Data | America/Los_Angeles
as of 3/7/21 2:03 PM PST
Date & Time Temp (°F) RH (%) Dew Pt (°F) Wind Spd (mph) Wind Dir (°) Wind Gust (mph) Latest Rain (In) Daily Rain (In) Daily Min Temp (°F) Daily Max Temp (°F)
3/7/21 - 1400 63.4 42 40.2 5.9 WSW | 238 11.1 0.00 0.00 36.3 64.6
3/7/21 - 1300 61.9 41 38.3 5.2 WSW | 246 11.6 0.00 0.00 36.3 62.9
3/7/21 - 1200 60.3 41 36.4 4.8 WSW | 240 9.2 0.00 0.00 36.3 61.2
3/7/21 - 1100 58.4 38 33.0 3.2 WSW | 254 8.0 0.00 0.00 36.3 59.5
3/7/21 - 1000 55.7 44 33.8 1.9 WSW | 251 5.3 0.00 0.00 36.3 58.0
3/7/21 - 0900 50.4 54 34.2 1.9 WSW | 240 4.2 0.00 0.00 36.3 53.5
3/7/21 - 0800 43.1 73 34.9 2.9 WSW | 249 4.8 0.00 0.00 36.3 46.9
3/7/21 - 0700 37.4 82 32.5 3.0 W | 259 6.0 0.00 0.00 36.3 44.9
3/7/21 - 0600 38.6 82 33.7 3.0 WSW | 251 6.9 0.00 0.00 38.0 44.9
3/7/21 - 0500 39.5 81 34.1 3.2 WNW | 286 8.4 0.00 0.00 38.0 44.9
3/7/21 - 0400 39.2 84 34.9 3.5 WSW | 256 6.0 0.00 0.00 38.3 44.9
3/7/21 - 0300 40.0 82 34.9 3.3 WSW | 244 6.3 0.00 0.00 39.0 44.9
3/7/21 - 0200 42.0 79 36.1 3.8 SW | 232 7.5 0.00 0.00 40.6 44.9
3/7/21 - 0100 44.1 78 37.6 2.3 SSW | 211 5.8 0.00 0.00 43.3 44.9
3/7/21 - 0000 44.6 81 39.2 4.2 W | 263 7.9 0.00 0.05 40.6 63.2
3/6/21 - 2300 44.5 84 40.1 5.8 W | 264 11.2 0.00 0.05 40.6 63.2
3/6/21 - 2200 45.3 84 40.6 7.7 WSW | 247 11.1 0.00 0.05 40.6 63.2
3/6/21 - 2100 46.5 80 40.6 7.1 WSW | 256 12.1 0.00 0.05 40.6 63.2
3/6/21 - 2000 48.6 72 40.0 8.4 W | 261 15.7 0.00 0.05 40.6 63.2
3/6/21 - 1900 50.9 69 41.2 7.0 W | 260 13.5 0.00 0.05 40.6 63.2
3/6/21 - 1800 55.9 63 43.4 8.1 W | 259 15.3 0.00 0.05 40.6 63.2
3/6/21 - 1700 60.4 56 44.4 8.2 WSW | 250 13.8 0.00 0.05 40.6 63.2
3/6/21 - 1600 61.9 52 44.2 6.6 WSW | 239 10.8 0.00 0.05 40.6 63.2
3/6/21 - 1500 61.7 51 43.6 4.6 SW | 233 10.0 0.00 0.05 40.6 62.1
3/6/21 - 1400 60.9 55 44.5 7.2 WSW | 245 13.4 0.00 0.05 40.6 61.6
3/6/21 - 1300 59.5 58 44.7 7.5 WSW | 248 13.5 0.00 0.05 40.6 60.1
3/6/21 - 1200 56.9 65 45.2 8.9 WSW | 242 14.2 0.00 0.05 40.6 58.6
3/6/21 - 1100 54.6 68 44.2 7.0 WSW | 240 14.3 0.00 0.05 40.6 56.0
3/6/21 - 1000 51.7 72 42.8 4.8 WSW | 253 10.8 0.00 0.05 40.6 54.0
3/6/21 - 0900 47.6 81 42.0 7.1 WSW | 251 12.1 0.00 0.05 40.6 49.4
3/6/21 - 0800 43.8 86 40.0 4.1 WSW | 240 10.6 0.00 0.05 40.6 47.0
3/6/21 - 0700 41.9 87 38.3 2.8 W | 267 9.3 0.00 0.05 40.7 47.0
3/6/21 - 0600 42.8 87 39.2 7.1 WSW | 247 12.5 0.00 0.05 42.4 47.0
3/6/21 - 0500 43.7 87 40.1 5.2 WSW | 241 14.1 0.00 0.05 43.2 47.0
3/6/21 - 0400 44.1 89 41.1 9.6 W | 271 19.0 0.00 0.05 43.9 47.0
3/6/21 - 0300 44.9 88 41.4 9.7 W | 263 18.3 0.00 0.05 44.4 47.0
3/6/21 - 0200 45.7 89 42.7 6.2 SW | 227 17.3 0.01 0.05 45.2 47.0
3/6/21 - 0100 46.4 87 42.7 4.2 W | 268 13.3 0.04 0.04 46.1 47.0
3/6/21 - 0000 47.1 87 43.5 10.2 W | 278 22.2 0.10 0.15 41.1 64.9
3/5/21 - 2300 54.6 77 47.6 5.5 S | 184 25.1 0.05 0.05 41.1 64.9
3/5/21 - 2200 55.0 78 48.4 3.7 SSW | 206 9.9 0.00 0.00 41.1 64.9
3/5/21 - 2100 54.5 81 48.8 7.2 SW | 232 13.2 0.00 0.00 41.1 64.9
3/5/21 - 2000 52.8 86 48.6 7.0 WSW | 244 11.9 0.00 0.00 41.1 64.9
3/5/21 - 1900 54.4 79 48.1 9.1 WSW | 252 16.2 0.00 0.00 41.1 64.9
3/5/21 - 1800 58.2 68 47.7 10.1 WSW | 247 17.6 0.00 0.00 41.1 64.9
3/5/21 - 1700 62.2 56 46.4 12.0 WSW | 246 17.5 0.00 0.00 41.1 64.9
3/5/21 - 1600 63.9 54 46.8 10.2 WSW | 255 17.1 0.00 0.00 41.1 64.9
3/5/21 - 1500 64.1 54 46.9 8.5 W | 268 15.1 0.00 0.00 41.1 64.9
3/5/21 - 1400 63.7 55 47.2 8.7 W | 263 15.0 0.00 0.00 41.1 64.9
3/5/21 - 1300 62.4 57 46.8 7.7 W | 266 14.0 0.00 0.00 41.1 63.0
3/5/21 - 1200 61.0 57 45.8 9.2 WSW | 254 15.6 0.00 0.00 41.1 62.1
3/5/21 - 1100 60.3 57 45.2 8.6 WSW | 244 14.1 0.00 0.00 41.1 61.2
3/5/21 - 1000 58.4 62 45.5 7.8 WSW | 252 13.4 0.00 0.00 41.1 60.1
3/5/21 - 0900 54.6 67 44.0 5.0 W | 261 10.1 0.00 0.00 41.1 57.0
3/5/21 - 0800 45.2 82 39.9 3.1 WNW | 294 6.6 0.00 0.00 41.1 49.5
3/5/21 - 0700 44.3 79 38.2 3.6 WNW | 285 7.0 0.00 0.00 41.1 47.6
3/5/21 - 0600 44.9 82 39.8 3.6 W | 279 8.2 0.00 0.00 41.1 47.6
3/5/21 - 0500 42.7 84 38.1 1.6 NNE | 22 3.6 0.00 0.00 41.1 47.6
3/5/21 - 0400 45.1 81 39.7 3.3 WNW | 300 5.5 0.00 0.00 41.1 47.6
3/5/21 - 0300 45.0 81 39.4 2.9 NW | 306 6.7 0.00 0.00 41.1 47.6
3/5/21 - 0200 45.9 81 40.5 3.3 WNW | 292 6.8 0.00 0.00 41.1 47.6
3/5/21 - 0100 42.3 78 35.9 1.3 NNW | 341 4.6 0.00 0.00 41.1 43.8
3/5/21 - 0000 45.2 75 37.9 1.9 WNW | 284 4.3 0.00 0.00 37.0 63.7
3/4/21 - 2300 47.1 75 39.6 3.8 NW | 316 10.4 0.00 0.00 37.0 63.7
3/4/21 - 2200 49.6 73 41.3 2.7 SW | 221 7.2 0.00 0.00 37.0 63.7
3/4/21 - 2100 50.3 71 41.3 4.8 WSW | 243 8.9 0.00 0.00 37.0 63.7
3/4/21 - 2000 51.5 69 41.7 4.9 WSW | 255 12.4 0.00 0.00 37.0 63.7
3/4/21 - 1900 53.6 68 43.3 6.2 W | 267 12.6 0.00 0.00 37.0 63.7
3/4/21 - 1800 57.0 62 44.1 8.7 WSW | 258 14.6 0.00 0.00 37.0 63.7
3/4/21 - 1700 61.4 50 42.5 9.2 WSW | 255 15.0 0.00 0.00 37.0 63.7
3/4/21 - 1600 63.3 41 39.3 8.4 WSW | 254 13.8 0.00 0.00 37.0 63.7
3/4/21 - 1500 62.9 46 42.1 7.6 W | 264 13.6 0.00 0.00 37.0 63.5
3/4/21 - 1400 62.2 50 43.2 6.4 W | 259 13.7 0.00 0.00 37.0 63.2
3/4/21 - 1300 59.9 56 44.2 7.0 W | 262 14.5 0.00 0.00 37.0 61.1
3/4/21 - 1200 58.5 58 43.8 7.6 WSW | 257 14.5 0.00 0.00 37.0 59.2
3/4/21 - 1100 56.7 61 43.4 7.4 WSW | 248 13.2 0.00 0.00 37.0 58.0
3/4/21 - 1000 54.4 66 43.3 7.2 WSW | 250 11.8 0.00 0.00 37.0 55.8
3/4/21 - 0900 50.3 74 42.5 3.5 WNW | 290 10.3 0.00 0.00 37.0 53.5
3/4/21 - 0800 41.3 88 38.1 2.1 NW | 308 6.0 0.00 0.00 37.0 47.0
3/4/21 - 0700 38.3 88 34.9 2.0 NW | 323 4.9 0.00 0.00 37.0 47.0
3/4/21 - 0600 41.9 84 37.5 2.2 SW | 228 4.6 0.00 0.00 39.6 47.0
3/4/21 - 0500 41.5 85 37.3 3.6 WSW | 247 5.7 0.00 0.00 41.1 47.0
3/4/21 - 0400 43.9 81 38.4 3.0 W | 269 7.8 0.00 0.00 41.6 47.0
3/4/21 - 0300 44.9 80 39.2 5.1 WSW | 245 12.4 0.00 0.00 43.8 47.0
3/4/21 - 0200 45.6 79 39.4 4.2 WNW | 289 14.6 0.00 0.00 43.8 47.0
3/4/21 - 0100 46.1 79 39.9 7.4 W | 262 13.8 0.00 0.00 45.3 47.0
3/4/21 - 0000 46.9 78 40.4 10.6 W | 263 20.4 0.00 0.00 36.0 66.5
3/3/21 - 2300 47.3 79 41.2 7.7 W | 270 14.9 0.00 0.00 36.0 66.5
3/3/21 - 2200 47.2 81 41.7 5.5 W | 267 11.4 0.00 0.00 36.0 66.5
3/3/21 - 2100 47.9 79 41.8 5.3 W | 262 10.9 0.00 0.00 36.0 66.5
3/3/21 - 2000 49.1 79 42.8 6.0 W | 269 16.5 0.00 0.00 36.0 66.5
3/3/21 - 1900 50.6 74 42.5 6.7 WSW | 246 14.2 0.00 0.00 36.0 66.5
3/3/21 - 1800 55.6 64 43.7 8.0 WSW | 237 16.6 0.00 0.00 36.0 66.5
3/3/21 - 1700 57.8 60 44.2 7.3 SW | 236 15.3 0.00 0.00 36.0 66.5
3/3/21 - 1600 61.0 53 43.6 8.5 WSW | 255 16.4 0.00 0.00 36.0 66.5
3/3/21 - 1500 63.2 50 44.1 11.1 WSW | 247 17.5 0.00 0.00 36.0 66.5
3/3/21 - 1400 65.7 43 42.6 10.1 WSW | 247 17.4 0.00 0.00 36.0 66.5
3/3/21 - 1300 63.5 48 43.7 9.9 WSW | 247 16.4 0.00 0.00 36.0 64.5
3/3/21 - 1200 62.1 50 43.4 9.6 WSW | 251 17.2 0.00 0.00 36.0 63.9
3/3/21 - 1100 59.6 49 40.4 6.2 SW | 232 10.6 0.00 0.00 36.0 61.5
3/3/21 - 1000 55.0 55 39.3 3.0 WSW | 257 5.9 0.00 0.00 36.0 57.7
3/3/21 - 0900 46.4 69 36.8 1.9 W | 281 4.1 0.00 0.00 36.0 51.2
3/3/21 - 0800 39.5 79 33.4 1.8 WNW | 298 5.6 0.00 0.00 36.0 47.2
3/3/21 - 0700 39.8 77 33.1 1.8 N | 353 4.9 0.00 0.00 36.1 47.2
3/3/21 - 0600 38.4 79 32.5 1.6 W | 276 3.8 0.00 0.00 36.1 47.2
3/3/21 - 0500 39.4 78 33.1 1.0 WSW | 237 3.0 0.00 0.00 38.6 47.2
3/3/21 - 0400 42.6 70 33.6 0.4 NE | 37 2.5 0.00 0.00 40.7 47.2
3/3/21 - 0300 44.4 68 34.5 2.0 WSW | 256 4.6 0.00 0.00 42.8 47.2
3/3/21 - 0200 45.4 61 32.5 2.6 WSW | 254 5.1 0.00 0.00 42.8 47.2
3/3/21 - 0100 44.3 64 32.8 3.3 WNW | 282 5.7 0.00 0.00 42.8 47.0
3/3/21 - 0000 44.6 66 34.0 2.7 W | 280 4.9 0.00 0.00 35.0 71.2
3/2/21 - 2300 45.7 66 34.9 2.7 W | 273 4.3 0.00 0.00 35.0 71.2
3/2/21 - 2200 48.2 62 35.8 3.0 W | 277 4.6 0.00 0.00 35.0 71.2
3/2/21 - 2100 50.0 61 37.1 2.2 WNW | 289 4.8 0.00 0.00 35.0 71.2
3/2/21 - 2000 54.1 57 39.4 1.7 WNW | 287 3.3 0.00 0.00 35.0 71.2
3/2/21 - 1900 58.6 49 39.4 2.5 W | 261 5.0 0.00 0.00 35.0 71.2
3/2/21 - 1800 62.2 43 39.3 3.6 WSW | 252 5.3 0.00 0.00 35.0 71.2
3/2/21 - 1700 66.0 36 38.6 4.6 WSW | 254 8.0 0.00 0.00 35.0 71.2
3/2/21 - 1600 69.1 30 36.7 4.8 WSW | 254 7.8 0.00 0.00 35.0 71.2
3/2/21 - 1500 70.0 29 36.6 4.7 WSW | 254 10.1 0.00 0.00 35.0 71.2
3/2/21 - 1400 69.5 29 36.0 4.0 WSW | 246 9.6 0.00 0.00 35.0 71.2
3/2/21 - 1300 67.2 32 36.5 3.1 W | 262 7.1 0.00 0.00 35.0 68.7
3/2/21 - 1200 63.8 38 37.8 3.7 WSW | 248 8.6 0.00 0.00 35.0 65.6
3/2/21 - 1100 59.8 44 38.0 3.5 SW | 232 8.0 0.00 0.00 35.0 61.1
3/2/21 - 1000 55.4 52 38.0 2.6 SSW | 208 5.7 0.00 0.00 35.0 57.6
3/2/21 - 0900 49.2 61 36.2 2.0 SSW | 202 5.7 0.00 0.00 35.0 53.0
3/2/21 - 0800 38.4 75 31.1 0.9 NNW | 345 2.8 0.00 0.00 35.0 49.1
3/2/21 - 0700 35.9 76 29.0 1.1 NNW | 342 3.3 0.00 0.00 35.0 49.1
3/2/21 - 0600 36.0 77 29.4 1.1 NW | 326 3.4 0.00 0.00 35.0 49.1
3/2/21 - 0500 36.8 75 29.7 1.2 N | 357 2.8 0.00 0.00 35.0 49.1
3/2/21 - 0400 39.6 70 30.5 1.2 NNE | 12 3.2 0.00 0.00 37.3 49.1
3/2/21 - 0300 42.7 61 30.2 1.2 S | 189 3.6 0.00 0.00 42.0 49.1
3/2/21 - 0200 45.5 53 29.3 2.1 SW | 227 4.7 0.00 0.00 43.4 49.1
3/2/21 - 0100 45.3 54 29.6 2.7 NNW | 338 6.5 0.00 0.00 44.1 48.9
3/2/21 - 0000 44.3 56 29.5 1.0 W | 266 2.4 0.00 0.00 33.8 67.8
3/1/21 - 2300 44.7 58 31.0 2.0 WNW | 292 5.2 0.00 0.00 33.8 67.8
3/1/21 - 2200 45.2 61 32.5 2.3 WNW | 297 4.3 0.00 0.00 33.8 67.8
3/1/21 - 2100 49.8 49 31.3 2.0 NW | 306 3.7 0.00 0.00 33.8 67.8
3/1/21 - 2000 52.1 47 32.6 2.5 W | 272 4.6 0.00 0.00 33.8 67.8
3/1/21 - 1900 55.4 44 34.0 2.3 NW | 310 5.0 0.00 0.00 33.8 67.8
3/1/21 - 1800 62.7 31 31.6 3.2 W | 281 7.0 0.00 0.00 33.8 67.8
3/1/21 - 1700 65.4 29 32.6 4.5 W | 272 9.6 0.00 0.00 33.8 67.8
3/1/21 - 1600 66.2 31 34.5 5.9 WNW | 282 12.5 0.00 0.00 33.8 67.8
3/1/21 - 1500 67.0 32 36.1 5.2 W | 263 10.7 0.00 0.00 33.8 67.8
3/1/21 - 1400 66.8 31 35.0 3.9 W | 265 10.3 0.00 0.00 33.8 67.6
3/1/21 - 1300 65.1 34 36.0 3.5 W | 263 8.0 0.00 0.00 33.8 66.9
3/1/21 - 1200 62.4 35 34.5 4.4 WSW | 251 10.4 0.00 0.00 33.8 63.6
3/1/21 - 1100 60.8 38 34.8 5.0 WSW | 256 10.3 0.00 0.00 33.8 62.1
3/1/21 - 1000 55.8 52 38.2 3.0 WSW | 256 10.0 0.00 0.00 33.8 59.9
3/1/21 - 0900 47.0 68 37.0 1.8 NNW | 342 4.1 0.00 0.00 33.8 51.8
3/1/21 - 0800 38.6 81 33.3 0.8 NNW | 330 2.7 0.00 0.00 33.8 43.3
3/1/21 - 0700 34.4 85 30.2 1.2 NNW | 337 3.9 0.00 0.00 34.0 42.0
3/1/21 - 0600 35.3 83 30.6 0.6 NW | 323 2.0 0.00 0.00 34.2 42.0
3/1/21 - 0500 35.7 81 30.5 0.6 N | 2 2.0 0.00 0.00 35.0 42.0
3/1/21 - 0400 37.1 78 30.8 0.7 WNW | 283 2.0 0.00 0.00 36.3 42.0
3/1/21 - 0300 38.8 75 31.6 0.7 NW | 308 4.0 0.00 0.00 38.2 42.0
3/1/21 - 0200 40.4 72 32.0 1.5 NNW | 328 4.7 0.00 0.00 39.3 42.0
3/1/21 - 0100 41.5 70 32.3 1.8 NNW | 331 3.6 0.00 0.00 40.8 42.0
3/1/21 - 0000 42.7 67 32.6 1.4 NW | 322 3.4 0.00 0.00 37.4 67.3
2/28/21 - 2300 42.9 68 33.0 1.3 NW | 319 4.6 0.00 0.00 37.4 67.3
2/28/21 - 2200 44.2 66 33.4 1.6 NW | 316 3.9 0.00 0.00 37.4 67.3
2/28/21 - 2100 45.9 62 33.5 1.0 NNW | 329 3.8 0.00 0.00 37.4 67.3
2/28/21 - 2000 49.5 55 34.2 1.8 NW | 324 5.2 0.00 0.00 37.4 67.3
2/28/21 - 1900 58.2 39 33.4 2.8 ENE | 72 6.1 0.00 0.00 37.4 67.3
2/28/21 - 1800 63.5 28 29.9 4.5 ESE | 103 10.1 0.00 0.00 37.4 67.3
2/28/21 - 1700 65.5 22 26.0 7.4 ENE | 63 11.9 0.00 0.00 37.4 67.3
2/28/21 - 1600 66.8 22 26.8 7.5 NE | 48 13.7 0.00 0.00 37.4 67.3
2/28/21 - 1500 66.6 23 27.4 7.5 NE | 47 13.6 0.00 0.00 37.4 67.0
Max 70.0 89 48.8 12.0 - 25.1 0.10 0.15 46.1 71.2
Avg 51.3 64 38.2 4.6 - 9.4 0.00 - - -
Min 34.4 22 26.0 0.4 - 2.0 0.00 0.00 33.8 42.0
Total - - - - - - 0.20 - - -
Tip: Bookmark this page for easy future reference